createdAt,value
2024-01-16T00:01:21.450Z,7.30
2024-01-16T00:03:49.237Z,9.20
2024-01-16T00:06:17.127Z,9.00
2024-01-16T00:08:44.880Z,8.70
2024-01-16T00:11:12.925Z,7.90
2024-01-16T00:13:40.627Z,6.90
2024-01-16T00:16:08.343Z,6.60
2024-01-16T00:18:36.273Z,8.90
2024-01-16T00:21:04.020Z,6.40
2024-01-16T00:23:34.511Z,6.10
2024-01-16T00:26:03.525Z,7.10
2024-01-16T00:28:31.717Z,7.30
2024-01-16T00:30:59.441Z,6.70
2024-01-16T00:33:28.819Z,6.00
2024-01-16T00:35:56.549Z,6.80
2024-01-16T00:38:25.110Z,6.30
2024-01-16T00:40:53.227Z,6.10
2024-01-16T00:43:21.001Z,6.90
2024-01-16T00:45:49.414Z,7.20
2024-01-16T00:48:17.482Z,5.40
2024-01-16T00:50:47.427Z,5.90
2024-01-16T00:53:15.266Z,6.50
2024-01-16T00:55:43.169Z,7.10
2024-01-16T00:58:10.847Z,4.80
2024-01-16T01:00:42.118Z,5.30
2024-01-16T01:03:09.994Z,6.90
2024-01-16T01:05:37.972Z,6.80
2024-01-16T01:08:06.123Z,6.60
2024-01-16T01:10:33.893Z,5.60
2024-01-16T01:13:02.159Z,5.90
2024-01-16T01:15:29.897Z,6.00
2024-01-16T01:17:57.748Z,8.00
2024-01-16T01:20:25.769Z,6.00
2024-01-16T01:22:53.834Z,6.80
2024-01-16T01:25:21.505Z,6.80
2024-01-16T01:27:50.154Z,5.90
2024-01-16T01:30:17.850Z,6.20
2024-01-16T01:32:47.737Z,5.90
2024-01-16T01:35:16.037Z,5.50
2024-01-16T01:37:43.907Z,5.80
2024-01-16T01:40:13.783Z,6.00
2024-01-16T01:42:41.439Z,6.30
2024-01-16T01:45:09.285Z,4.60
2024-01-16T01:47:37.006Z,6.10
2024-01-16T01:50:05.073Z,5.70
2024-01-16T01:52:32.694Z,6.30
2024-01-16T01:55:02.304Z,6.20
2024-01-16T01:57:30.728Z,4.50
2024-01-16T01:59:58.488Z,4.40
2024-01-16T02:02:26.256Z,6.50
2024-01-16T02:04:54.221Z,4.90
2024-01-16T02:07:22.350Z,6.00
2024-01-16T02:09:50.515Z,5.20
2024-01-16T02:12:18.229Z,5.40
2024-01-16T02:14:45.935Z,4.50
2024-01-16T02:17:13.784Z,5.40
2024-01-16T02:19:41.622Z,4.90
2024-01-16T02:22:12.107Z,5.90
2024-01-16T02:24:39.830Z,6.50
2024-01-16T02:27:07.545Z,4.00
2024-01-16T02:29:38.501Z,5.10
2024-01-16T02:32:06.903Z,4.60
2024-01-16T02:34:35.748Z,5.10
2024-01-16T02:37:03.393Z,6.00
2024-01-16T02:39:32.029Z,5.30
2024-01-16T02:41:59.691Z,6.70
2024-01-16T02:44:27.708Z,6.60
2024-01-16T02:46:56.050Z,7.10
2024-01-16T02:49:23.940Z,4.40
2024-01-16T02:51:51.632Z,4.70
2024-01-16T02:54:19.502Z,5.40
2024-01-16T02:56:47.297Z,5.70
2024-01-16T02:59:15.166Z,5.40
2024-01-16T03:01:43.285Z,5.60
2024-01-16T03:04:10.977Z,5.50
2024-01-16T03:06:38.743Z,5.50
2024-01-16T03:09:08.102Z,4.00
2024-01-16T03:11:38.853Z,6.20
2024-01-16T03:14:07.059Z,4.50
2024-01-16T03:16:37.004Z,3.60
2024-01-16T03:19:04.632Z,4.30
2024-01-16T03:21:32.504Z,4.80
2024-01-16T03:24:00.831Z,4.50
2024-01-16T03:26:28.606Z,4.00
2024-01-16T03:28:56.245Z,3.70
2024-01-16T03:31:24.974Z,4.90
2024-01-16T03:33:52.709Z,5.70
2024-01-16T03:36:20.439Z,4.70
2024-01-16T03:38:48.177Z,4.80
2024-01-16T03:41:16.085Z,4.30
2024-01-16T03:43:44.179Z,6.40
2024-01-16T03:46:12.109Z,5.90
2024-01-16T03:48:40.614Z,5.80
2024-01-16T03:51:08.444Z,5.10
2024-01-16T03:53:36.222Z,5.00
2024-01-16T03:56:04.022Z,5.10
2024-01-16T03:58:31.669Z,4.70
2024-01-16T04:00:59.795Z,5.10
2024-01-16T04:03:27.672Z,5.60
2024-01-16T04:05:55.504Z,5.50
2024-01-16T04:08:23.297Z,5.40
2024-01-16T04:10:51.134Z,4.30
2024-01-16T04:13:19.194Z,6.30
2024-01-16T04:15:47.188Z,5.60
2024-01-16T04:18:14.970Z,5.80
2024-01-16T04:20:42.716Z,5.80
2024-01-16T04:23:10.709Z,4.70
2024-01-16T04:25:38.573Z,4.30
2024-01-16T04:28:06.255Z,6.90
2024-01-16T04:30:33.893Z,4.40
2024-01-16T04:33:02.260Z,4.10
2024-01-16T04:35:30.362Z,5.60
2024-01-16T04:37:58.107Z,3.90
2024-01-16T04:40:25.710Z,4.00
2024-01-16T04:42:53.368Z,4.10
2024-01-16T04:45:21.048Z,4.30
2024-01-16T04:47:48.767Z,4.20
2024-01-16T04:50:16.579Z,3.90
2024-01-16T04:52:44.571Z,3.80
2024-01-16T04:55:12.250Z,3.80
2024-01-16T04:57:40.033Z,4.70
2024-01-16T05:00:08.375Z,4.40
2024-01-16T05:02:36.494Z,4.00
2024-01-16T05:05:04.833Z,3.60
2024-01-16T05:07:32.836Z,3.00
2024-01-16T05:10:00.782Z,4.70
2024-01-16T05:12:28.627Z,4.80
2024-01-16T05:14:56.425Z,5.00
2024-01-16T05:17:25.013Z,6.40
2024-01-16T05:19:52.794Z,6.70
2024-01-16T05:22:20.479Z,4.80
2024-01-16T05:24:48.144Z,4.40
2024-01-16T05:27:16.021Z,5.60
2024-01-16T05:29:44.833Z,6.50
2024-01-16T05:32:13.241Z,4.70
2024-01-16T05:34:41.169Z,3.00
2024-01-16T05:37:08.940Z,4.50
2024-01-16T05:39:37.873Z,5.10
2024-01-16T05:42:05.800Z,4.80
2024-01-16T05:44:33.520Z,5.20
2024-01-16T05:47:01.195Z,4.80
2024-01-16T05:49:29.029Z,4.20
2024-01-16T05:51:56.656Z,5.00
2024-01-16T05:54:24.290Z,5.20
2024-01-16T05:56:51.993Z,4.60
2024-01-16T05:59:19.950Z,4.70
2024-01-16T06:01:47.595Z,6.20
2024-01-16T06:04:15.189Z,5.10
2024-01-16T06:06:46.952Z,5.80
2024-01-16T06:09:15.599Z,7.30
2024-01-16T06:11:43.815Z,6.80
2024-01-16T06:14:13.519Z,6.80
2024-01-16T06:16:41.236Z,7.10
2024-01-16T06:19:09.736Z,7.40
2024-01-16T06:21:37.609Z,7.60
2024-01-16T06:24:05.315Z,8.80
2024-01-16T06:26:32.972Z,8.90
2024-01-16T06:29:00.872Z,7.90
2024-01-16T06:31:28.571Z,9.20
2024-01-16T06:33:57.081Z,5.20
2024-01-16T06:36:25.022Z,6.50
2024-01-16T06:38:52.647Z,5.90
2024-01-16T06:41:20.538Z,8.20
2024-01-16T06:43:48.179Z,43.50
2024-01-16T06:46:15.868Z,27.00
2024-01-16T06:48:43.702Z,14.20
2024-01-16T06:51:15.098Z,9.00
2024-01-16T06:53:42.745Z,8.60
2024-01-16T06:56:11.019Z,8.60
2024-01-16T06:58:38.905Z,6.80
2024-01-16T07:01:06.521Z,6.70
2024-01-16T07:03:34.156Z,9.00
2024-01-16T07:06:02.334Z,9.90
2024-01-16T07:08:29.991Z,8.80
2024-01-16T07:10:57.791Z,7.40
2024-01-16T07:13:25.499Z,9.00
2024-01-16T07:15:53.191Z,6.80
2024-01-16T07:18:21.169Z,7.90
2024-01-16T07:20:49.013Z,7.10
2024-01-16T07:23:16.872Z,9.60
2024-01-16T07:25:44.458Z,6.10
2024-01-16T07:28:12.234Z,7.80
2024-01-16T07:30:41.097Z,7.00
2024-01-16T07:33:08.872Z,5.40
2024-01-16T07:35:36.670Z,4.90
2024-01-16T07:38:05.886Z,8.00
2024-01-16T07:40:33.666Z,7.30
2024-01-16T07:43:01.324Z,5.70
2024-01-16T07:45:29.051Z,7.60
2024-01-16T07:47:56.766Z,7.60
2024-01-16T07:50:24.646Z,8.20
2024-01-16T07:52:52.278Z,5.60
2024-01-16T07:55:22.741Z,7.40
2024-01-16T07:57:52.048Z,8.20
2024-01-16T08:00:19.821Z,6.20
2024-01-16T08:02:47.580Z,6.80
2024-01-16T08:05:15.332Z,6.90
2024-01-16T08:07:43.116Z,6.00
2024-01-16T08:10:11.017Z,6.20
2024-01-16T08:12:38.805Z,6.90
2024-01-16T08:15:08.674Z,4.10
2024-01-16T08:17:36.457Z,4.30
2024-01-16T08:20:04.689Z,4.80
2024-01-16T08:22:32.456Z,6.80
2024-01-16T08:25:00.480Z,6.30
2024-01-16T08:27:29.951Z,5.80
2024-01-16T08:29:57.530Z,6.10
2024-01-16T08:32:25.213Z,7.60
2024-01-16T08:34:53.024Z,6.40
2024-01-16T08:37:20.801Z,6.90
2024-01-16T08:39:49.261Z,7.60
2024-01-16T08:42:17.294Z,6.10
2024-01-16T08:44:44.865Z,7.30
2024-01-16T08:47:12.548Z,6.90
2024-01-16T08:49:41.187Z,4.70
2024-01-16T08:52:08.917Z,7.10
2024-01-16T08:54:36.429Z,8.70
2024-01-16T08:57:04.118Z,6.00
2024-01-16T08:59:33.658Z,6.60
2024-01-16T09:02:01.618Z,8.40
2024-01-16T09:04:29.236Z,7.60
2024-01-16T09:06:57.331Z,10.80
2024-01-16T09:09:25.060Z,7.10
2024-01-16T09:11:53.114Z,7.90
2024-01-16T09:14:21.613Z,7.30
2024-01-16T09:16:49.572Z,7.30
2024-01-16T09:19:17.686Z,7.60
2024-01-16T09:21:45.397Z,8.60
2024-01-16T09:24:13.775Z,10.00
2024-01-16T09:26:41.583Z,9.90
2024-01-16T09:29:10.173Z,7.50
2024-01-16T09:31:37.953Z,8.30
2024-01-16T09:34:09.557Z,8.50
2024-01-16T09:36:38.646Z,5.80
2024-01-16T09:39:09.160Z,7.80
2024-01-16T09:41:37.055Z,8.30
2024-01-16T09:44:04.683Z,8.10
2024-01-16T09:46:32.539Z,7.90
2024-01-16T09:49:00.595Z,8.20
2024-01-16T09:51:28.504Z,10.10
2024-01-16T09:53:56.130Z,8.10
2024-01-16T09:56:28.495Z,10.40
2024-01-16T09:58:56.920Z,10.50
2024-01-16T10:01:24.610Z,8.10
2024-01-16T10:03:54.049Z,4.80
2024-01-16T10:06:22.143Z,4.80
2024-01-16T10:08:49.868Z,7.80
2024-01-16T10:11:17.478Z,6.70
2024-01-16T10:13:45.085Z,4.80
2024-01-16T10:16:12.768Z,6.50
2024-01-16T10:18:40.487Z,5.00
2024-01-16T10:21:08.914Z,7.50
2024-01-16T10:23:38.101Z,8.90
2024-01-16T10:26:05.771Z,8.40
2024-01-16T10:28:35.567Z,6.50
2024-01-16T10:31:03.576Z,6.60
2024-01-16T10:33:32.858Z,6.10
2024-01-16T10:36:01.192Z,7.20
2024-01-16T10:38:28.939Z,7.50
2024-01-16T10:40:56.841Z,4.20
2024-01-16T10:43:24.736Z,6.40
2024-01-16T10:45:52.286Z,4.60
2024-01-16T10:48:19.974Z,6.20
2024-01-16T10:50:47.782Z,6.20
2024-01-16T10:53:17.368Z,6.10
2024-01-16T10:55:45.685Z,5.00
2024-01-16T10:58:14.071Z,5.50
2024-01-16T11:00:41.890Z,5.10
2024-01-16T11:03:09.630Z,6.00
2024-01-16T11:05:37.358Z,5.50
2024-01-16T11:08:05.208Z,4.40
2024-01-16T11:10:33.023Z,6.50
2024-01-16T11:13:00.980Z,5.00
2024-01-16T11:15:29.778Z,5.70
2024-01-16T11:17:57.825Z,6.20
2024-01-16T11:20:41.300Z,8.10
2024-01-16T11:23:14.139Z,7.10
2024-01-16T11:25:41.917Z,6.00
2024-01-16T11:28:09.439Z,6.30
2024-01-16T11:30:37.066Z,6.80
2024-01-16T11:33:06.340Z,5.40
2024-01-16T11:35:35.126Z,6.50
2024-01-16T11:38:02.743Z,5.00
2024-01-16T11:40:30.559Z,6.40
2024-01-16T11:42:58.122Z,5.30
2024-01-16T11:45:26.714Z,5.60
2024-01-16T11:47:54.570Z,4.10
2024-01-16T11:50:24.199Z,7.40
2024-01-16T11:52:51.919Z,7.40
2024-01-16T11:55:19.557Z,6.80
2024-01-16T11:57:48.411Z,8.90
2024-01-16T12:00:16.821Z,9.60
2024-01-16T12:02:44.640Z,8.00
2024-01-16T12:05:12.556Z,6.40
2024-01-16T12:07:41.338Z,7.70
2024-01-16T12:10:10.724Z,7.30
2024-01-16T12:12:38.348Z,7.50
2024-01-16T12:15:06.019Z,8.20
2024-01-16T12:17:33.809Z,7.80
2024-01-16T12:20:01.600Z,8.30
2024-01-16T12:22:29.684Z,8.80
2024-01-16T12:24:57.894Z,8.70
2024-01-16T12:27:26.243Z,9.60
2024-01-16T12:29:53.956Z,7.30
2024-01-16T12:32:23.409Z,6.00
2024-01-16T12:34:51.350Z,9.70
2024-01-16T12:37:18.985Z,13.80
2024-01-16T12:39:46.753Z,9.90
2024-01-16T12:42:14.496Z,8.30
2024-01-16T12:44:42.279Z,12.00
2024-01-16T12:47:11.140Z,10.00
2024-01-16T12:49:39.945Z,12.90
2024-01-16T12:52:07.540Z,10.10
2024-01-16T12:54:35.324Z,11.70
2024-01-16T12:57:03.020Z,6.50
2024-01-16T12:59:33.423Z,10.70
2024-01-16T13:02:01.792Z,8.40
2024-01-16T13:04:29.486Z,9.90
2024-01-16T13:06:57.318Z,8.10
2024-01-16T13:09:25.272Z,11.60
2024-01-16T13:11:53.463Z,12.60
2024-01-16T13:14:24.858Z,14.10
2024-01-16T13:16:53.024Z,13.10
2024-01-16T13:19:21.199Z,11.80
2024-01-16T13:21:49.175Z,11.40
2024-01-16T13:24:18.766Z,8.90
2024-01-16T13:26:46.554Z,8.40
2024-01-16T13:29:14.391Z,9.00
2024-01-16T13:31:42.140Z,7.30
2024-01-16T13:34:10.281Z,6.10
2024-01-16T13:39:14.483Z,7.50
2024-01-16T13:41:42.352Z,6.90
2024-01-16T13:44:10.075Z,6.10
2024-01-16T13:46:53.003Z,6.40
2024-01-16T13:49:26.848Z,6.20
2024-01-16T13:51:54.779Z,7.40
2024-01-16T13:54:22.346Z,8.00
2024-01-16T14:00:23.189Z,5.80
2024-01-16T14:02:51.939Z,7.20
2024-01-16T14:05:19.945Z,7.00
2024-01-16T14:07:47.869Z,8.00
2024-01-16T14:10:15.771Z,7.80
2024-01-16T14:12:46.362Z,4.20
2024-01-16T14:15:17.760Z,7.30
2024-01-16T14:17:45.607Z,5.30
2024-01-16T14:20:13.658Z,5.30
2024-01-16T14:22:41.589Z,5.40
2024-01-16T14:25:12.254Z,7.60
2024-01-16T14:27:40.590Z,7.00
2024-01-16T14:30:09.053Z,5.50
2024-01-16T14:32:36.971Z,6.90
2024-01-16T14:35:05.935Z,8.50
2024-01-16T14:37:33.674Z,8.10
2024-01-16T14:40:02.470Z,9.10
2024-01-16T14:42:30.129Z,9.60
2024-01-16T14:44:57.852Z,10.60
2024-01-16T14:47:25.902Z,12.50
2024-01-16T14:49:56.160Z,9.90
2024-01-16T14:52:26.280Z,10.20
2024-01-16T14:54:53.983Z,10.90
2024-01-16T14:57:21.829Z,9.60
2024-01-16T14:59:49.748Z,13.60
2024-01-16T15:02:17.849Z,10.20
2024-01-16T15:04:47.349Z,9.50
2024-01-16T15:07:15.425Z,11.20
2024-01-16T15:09:43.191Z,15.00
2024-01-16T15:12:11.017Z,12.90
2024-01-16T15:14:38.885Z,10.70
2024-01-16T15:17:08.488Z,9.50
2024-01-16T15:19:36.493Z,8.60
2024-01-16T15:22:04.362Z,9.90
2024-01-16T15:24:32.131Z,7.80
2024-01-16T15:26:59.932Z,10.80
2024-01-16T15:29:27.876Z,10.30
2024-01-16T15:31:55.716Z,14.60
2024-01-16T15:34:23.575Z,27.90
2024-01-16T15:36:51.416Z,44.10
2024-01-16T15:39:20.014Z,38.20
2024-01-16T15:41:47.820Z,28.20
2024-01-16T15:44:15.794Z,20.30
2024-01-16T15:46:43.553Z,18.20
2024-01-16T15:49:11.262Z,12.90
2024-01-16T15:51:42.473Z,12.80
2024-01-16T15:54:10.390Z,15.30
2024-01-16T15:56:38.228Z,19.30
2024-01-16T15:59:06.285Z,16.10
2024-01-16T16:01:34.258Z,21.70
2024-01-16T16:04:01.933Z,25.00
2024-01-16T16:06:29.929Z,19.30
2024-01-16T16:08:57.849Z,20.10
2024-01-16T16:11:25.718Z,20.50
2024-01-16T16:13:53.984Z,28.90
2024-01-16T16:16:21.901Z,43.60
2024-01-16T16:18:49.735Z,36.60
2024-01-16T16:21:17.758Z,35.40
2024-01-16T16:23:46.506Z,32.40
2024-01-16T16:26:14.163Z,26.10
2024-01-16T16:28:42.187Z,19.70
2024-01-16T16:31:11.333Z,23.20
2024-01-16T16:33:39.136Z,20.60
2024-01-16T16:36:07.062Z,24.00
2024-01-16T16:38:34.986Z,18.10
2024-01-16T16:41:03.299Z,19.70
2024-01-16T16:43:31.001Z,14.40
2024-01-16T16:45:59.947Z,21.10
2024-01-16T16:48:27.786Z,16.50
2024-01-16T16:50:55.629Z,15.40
2024-01-16T16:53:25.164Z,16.30
2024-01-16T16:55:54.317Z,13.40
2024-01-16T16:58:22.083Z,17.60
2024-01-16T17:00:50.917Z,12.50
2024-01-16T17:03:18.636Z,14.40
2024-01-16T17:05:46.657Z,14.40
2024-01-16T17:08:14.552Z,13.70
2024-01-16T17:10:43.168Z,14.70
2024-01-16T17:13:11.023Z,15.90
2024-01-16T17:15:38.761Z,14.30
2024-01-16T17:18:07.970Z,19.60
2024-01-16T17:20:35.814Z,16.00
2024-01-16T17:23:03.606Z,16.90
2024-01-16T17:25:31.263Z,20.70
2024-01-16T17:27:59.648Z,17.40
2024-01-16T17:30:27.353Z,12.90
2024-01-16T17:32:55.249Z,16.40
2024-01-16T17:35:25.244Z,16.00
2024-01-16T17:37:53.076Z,18.00
2024-01-16T17:40:20.747Z,17.10
2024-01-16T17:42:49.093Z,20.00
2024-01-16T17:45:16.850Z,14.70
2024-01-16T17:47:44.660Z,11.80
2024-01-16T17:50:13.320Z,12.30
2024-01-16T17:52:40.943Z,12.40
2024-01-16T17:55:10.056Z,15.20
2024-01-16T17:57:37.762Z,18.70
2024-01-16T18:00:07.023Z,13.70
2024-01-16T18:02:34.864Z,15.20
2024-01-16T18:05:11.522Z,11.40
2024-01-16T18:07:39.615Z,9.60
2024-01-16T18:10:10.406Z,10.00
2024-01-16T18:12:38.202Z,12.70
2024-01-16T18:15:06.245Z,16.60
2024-01-16T18:17:33.963Z,10.50
2024-01-16T18:20:01.837Z,9.80
2024-01-16T18:22:29.508Z,17.70
2024-01-16T18:24:57.157Z,16.60
2024-01-16T18:27:24.835Z,16.70
2024-01-16T18:29:52.551Z,12.20
2024-01-16T18:32:20.445Z,12.10
2024-01-16T18:34:48.537Z,10.80
2024-01-16T18:37:17.671Z,10.20
2024-01-16T18:39:45.385Z,12.10
2024-01-16T18:42:13.208Z,11.90
2024-01-16T18:44:40.944Z,10.40
2024-01-16T18:47:08.531Z,9.60
2024-01-16T18:49:36.491Z,15.70
2024-01-16T18:52:07.175Z,23.40
2024-01-16T18:54:35.645Z,27.10
2024-01-16T18:57:04.051Z,19.60
2024-01-16T18:59:32.063Z,21.80
2024-01-16T19:02:00.072Z,26.60
2024-01-16T19:04:30.685Z,20.60
2024-01-16T19:07:01.182Z,20.30
2024-01-16T19:09:38.080Z,22.50
2024-01-16T19:12:07.135Z,22.90
2024-01-16T19:14:35.034Z,19.60
2024-01-16T19:17:02.826Z,19.50
2024-01-16T19:19:30.565Z,21.00
2024-01-16T19:21:59.632Z,22.60
2024-01-16T19:24:28.340Z,17.50
2024-01-16T19:26:58.829Z,13.10
2024-01-16T19:29:26.995Z,11.70
2024-01-16T19:31:54.639Z,11.40
2024-01-16T19:34:22.303Z,11.90
2024-01-16T19:36:51.108Z,19.70
2024-01-16T19:39:22.378Z,21.20
2024-01-16T19:41:50.170Z,24.40
2024-01-16T19:44:18.124Z,29.30
2024-01-16T19:46:46.582Z,34.30
2024-01-16T19:49:14.752Z,41.70
2024-01-16T19:51:42.615Z,88.00
2024-01-16T19:54:10.501Z,65.60
2024-01-16T19:56:41.381Z,68.60
2024-01-16T19:59:12.656Z,57.40
2024-01-16T20:01:40.836Z,42.90
2024-01-16T20:04:08.509Z,46.40
2024-01-16T20:06:37.919Z,30.90
2024-01-16T20:09:07.375Z,28.70
2024-01-16T20:11:35.427Z,21.80
2024-01-16T20:14:03.427Z,18.40
2024-01-16T20:16:31.220Z,19.90
2024-01-16T20:18:59.067Z,17.70
2024-01-16T20:21:30.032Z,17.10
2024-01-16T20:23:58.016Z,19.50
2024-01-16T20:26:27.101Z,15.70
2024-01-16T20:28:55.253Z,15.10
2024-01-16T20:31:23.381Z,18.90
2024-01-16T20:33:51.364Z,15.50
2024-01-16T20:36:19.365Z,14.70
2024-01-16T20:38:48.697Z,17.70
2024-01-16T20:41:16.881Z,17.60
2024-01-16T20:43:45.298Z,21.40
2024-01-16T20:46:13.119Z,16.60
2024-01-16T20:48:41.447Z,15.60
2024-01-16T20:51:13.244Z,17.50
2024-01-16T20:53:40.989Z,20.40
2024-01-16T20:56:08.622Z,27.00
2024-01-16T20:58:37.022Z,33.10
2024-01-16T21:01:04.937Z,100.70
2024-01-16T21:03:33.218Z,67.30
2024-01-16T21:06:03.402Z,52.80
2024-01-16T21:08:32.490Z,49.50
2024-01-16T21:11:00.533Z,69.00
2024-01-16T21:13:29.229Z,54.60
2024-01-16T21:15:57.953Z,43.60
2024-01-16T21:18:31.040Z,35.70
2024-01-16T21:20:59.938Z,47.00
2024-01-16T21:23:27.642Z,45.90
2024-01-16T21:25:55.521Z,39.20
2024-01-16T21:28:24.570Z,45.70
2024-01-16T21:30:55.799Z,42.40
2024-01-16T21:33:23.784Z,34.20
2024-01-16T21:35:53.108Z,36.10
2024-01-16T21:38:21.048Z,41.50
2024-01-16T21:40:49.392Z,47.70
2024-01-16T21:43:17.161Z,61.80
2024-01-16T21:45:45.020Z,73.40
2024-01-16T21:48:12.748Z,60.10
2024-01-16T21:50:40.783Z,64.20
2024-01-16T21:53:08.645Z,54.50
2024-01-16T21:55:36.440Z,64.10
2024-01-16T21:58:04.385Z,56.00
2024-01-16T22:00:32.652Z,61.10
2024-01-16T22:03:00.986Z,73.00
2024-01-16T22:05:29.273Z,95.30
2024-01-16T22:07:57.069Z,93.10
2024-01-16T22:10:24.833Z,117.70
2024-01-16T22:12:52.500Z,105.90
2024-01-16T22:15:20.069Z,80.10
2024-01-16T22:17:48.724Z,61.90
2024-01-16T22:20:17.724Z,88.90
2024-01-16T22:22:45.426Z,88.30
2024-01-16T22:25:13.630Z,81.30
2024-01-16T22:27:41.250Z,78.10
2024-01-16T22:30:09.403Z,96.80
2024-01-16T22:32:37.240Z,80.80
2024-01-16T22:35:05.070Z,89.20
2024-01-16T22:37:33.273Z,94.20
2024-01-16T22:40:01.449Z,78.90
2024-01-16T22:42:29.264Z,95.70
2024-01-16T22:44:57.262Z,94.00
2024-01-16T22:47:25.241Z,79.20
2024-01-16T22:49:53.124Z,80.00
2024-01-16T22:52:20.852Z,79.80
2024-01-16T22:54:48.430Z,96.60
2024-01-16T22:57:16.173Z,85.60
2024-01-16T22:59:43.902Z,91.90
2024-01-16T23:02:11.986Z,113.40
2024-01-16T23:04:40.109Z,69.40
2024-01-16T23:07:08.550Z,116.90
2024-01-16T23:09:36.306Z,87.00
2024-01-16T23:12:04.091Z,107.00
2024-01-16T23:14:32.307Z,117.60
2024-01-16T23:16:59.905Z,118.80
2024-01-16T23:19:27.813Z,114.50
2024-01-16T23:21:55.781Z,113.80
2024-01-16T23:24:23.398Z,90.30
2024-01-16T23:26:51.161Z,94.10
2024-01-16T23:29:18.811Z,120.70
2024-01-16T23:31:46.681Z,58.20
2024-01-16T23:34:14.550Z,82.60
2024-01-16T23:36:42.122Z,70.70
2024-01-16T23:39:12.081Z,80.60
2024-01-16T23:41:40.156Z,95.60
2024-01-16T23:44:09.557Z,87.70
2024-01-16T23:46:40.108Z,87.50
2024-01-16T23:49:07.932Z,91.90
2024-01-16T23:51:36.861Z,78.90
2024-01-16T23:54:04.531Z,85.30
2024-01-16T23:56:32.425Z,90.60
2024-01-16T23:59:00.853Z,89.30
